sensor_id;sensor_type;location;lat;lon;timestamp;P1;durP1;ratioP1;P2;durP2;ratioP2
9960;SDS011;5021;51.506;11.320;2023-01-04T00:00:33;7.80;;;7.00;;
9960;SDS011;5021;51.506;11.320;2023-01-04T00:02:59;9.07;;;7.40;;
9960;SDS011;5021;51.506;11.320;2023-01-04T00:05:25;8.77;;;7.40;;
9960;SDS011;5021;51.506;11.320;2023-01-04T00:07:51;8.07;;;7.23;;
9960;SDS011;5021;51.506;11.320;2023-01-04T00:10:17;7.40;;;6.70;;
9960;SDS011;5021;51.506;11.320;2023-01-04T00:12:43;8.77;;;7.43;;
9960;SDS011;5021;51.506;11.320;2023-01-04T00:15:09;10.73;;;7.63;;
9960;SDS011;5021;51.506;11.320;2023-01-04T00:17:35;9.07;;;7.10;;
9960;SDS011;5021;51.506;11.320;2023-01-04T00:20:01;8.13;;;7.33;;
9960;SDS011;5021;51.506;11.320;2023-01-04T00:22:27;10.20;;;8.00;;
9960;SDS011;5021;51.506;11.320;2023-01-04T00:24:53;8.90;;;8.00;;
9960;SDS011;5021;51.506;11.320;2023-01-04T00:27:18;8.70;;;6.60;;
9960;SDS011;5021;51.506;11.320;2023-01-04T00:29:44;8.97;;;7.20;;
9960;SDS011;5021;51.506;11.320;2023-01-04T00:32:10;11.30;;;7.47;;
9960;SDS011;5021;51.506;11.320;2023-01-04T00:34:36;9.60;;;6.90;;
9960;SDS011;5021;51.506;11.320;2023-01-04T00:37:02;8.80;;;6.87;;
9960;SDS011;5021;51.506;11.320;2023-01-04T00:39:28;7.53;;;6.73;;
9960;SDS011;5021;51.506;11.320;2023-01-04T00:41:54;8.63;;;6.60;;
9960;SDS011;5021;51.506;11.320;2023-01-04T00:44:29;8.13;;;6.33;;
9960;SDS011;5021;51.506;11.320;2023-01-04T00:46:55;8.33;;;6.57;;
9960;SDS011;5021;51.506;11.320;2023-01-04T00:49:21;10.33;;;6.67;;
9960;SDS011;5021;51.506;11.320;2023-01-04T00:51:46;7.63;;;6.83;;
9960;SDS011;5021;51.506;11.320;2023-01-04T00:54:13;8.03;;;6.60;;
9960;SDS011;5021;51.506;11.320;2023-01-04T00:56:39;9.80;;;6.90;;
9960;SDS011;5021;51.506;11.320;2023-01-04T00:59:05;8.70;;;6.40;;
9960;SDS011;5021;51.506;11.320;2023-01-04T01:01:32;8.70;;;7.10;;
9960;SDS011;5021;51.506;11.320;2023-01-04T01:04:00;9.23;;;7.67;;
9960;SDS011;5021;51.506;11.320;2023-01-04T01:06:26;7.73;;;6.13;;
9960;SDS011;5021;51.506;11.320;2023-01-04T01:08:52;10.10;;;6.10;;
9960;SDS011;5021;51.506;11.320;2023-01-04T01:11:19;8.70;;;6.80;;
9960;SDS011;5021;51.506;11.320;2023-01-04T01:13:45;8.50;;;6.57;;
9960;SDS011;5021;51.506;11.320;2023-01-04T01:16:12;9.00;;;6.80;;
9960;SDS011;5021;51.506;11.320;2023-01-04T01:18:38;9.47;;;6.93;;
9960;SDS011;5021;51.506;11.320;2023-01-04T01:21:05;8.97;;;6.67;;
9960;SDS011;5021;51.506;11.320;2023-01-04T01:23:32;9.67;;;6.97;;
9960;SDS011;5021;51.506;11.320;2023-01-04T01:25:59;11.33;;;7.37;;
9960;SDS011;5021;51.506;11.320;2023-01-04T01:28:26;9.13;;;6.77;;
9960;SDS011;5021;51.506;11.320;2023-01-04T01:30:52;10.00;;;6.67;;
9960;SDS011;5021;51.506;11.320;2023-01-04T01:33:17;8.03;;;6.73;;
9960;SDS011;5021;51.506;11.320;2023-01-04T01:35:43;7.53;;;6.63;;
9960;SDS011;5021;51.506;11.320;2023-01-04T01:38:09;9.70;;;7.00;;
9960;SDS011;5021;51.506;11.320;2023-01-04T01:40:42;7.70;;;6.83;;
9960;SDS011;5021;51.506;11.320;2023-01-04T01:43:18;9.90;;;7.30;;
9960;SDS011;5021;51.506;11.320;2023-01-04T01:45:45;9.30;;;7.30;;
9960;SDS011;5021;51.506;11.320;2023-01-04T01:48:14;9.73;;;7.30;;
9960;SDS011;5021;51.506;11.320;2023-01-04T01:50:44;10.30;;;7.47;;
9960;SDS011;5021;51.506;11.320;2023-01-04T01:53:12;8.83;;;7.43;;
9960;SDS011;5021;51.506;11.320;2023-01-04T01:55:39;8.07;;;6.87;;
9960;SDS011;5021;51.506;11.320;2023-01-04T01:58:05;8.13;;;6.93;;
9960;SDS011;5021;51.506;11.320;2023-01-04T02:00:32;8.23;;;7.03;;
9960;SDS011;5021;51.506;11.320;2023-01-04T02:03:01;8.47;;;7.00;;
9960;SDS011;5021;51.506;11.320;2023-01-04T02:05:28;9.50;;;7.33;;
9960;SDS011;5021;51.506;11.320;2023-01-04T02:07:55;9.90;;;6.83;;
9960;SDS011;5021;51.506;11.320;2023-01-04T02:10:21;6.83;;;6.13;;
9960;SDS011;5021;51.506;11.320;2023-01-04T02:12:47;9.03;;;7.43;;
9960;SDS011;5021;51.506;11.320;2023-01-04T02:15:15;11.57;;;6.73;;
9960;SDS011;5021;51.506;11.320;2023-01-04T02:17:44;8.63;;;6.77;;
9960;SDS011;5021;51.506;11.320;2023-01-04T02:23:07;7.83;;;6.93;;
9960;SDS011;5021;51.506;11.320;2023-01-04T02:38:30;7.93;;;5.67;;
9960;SDS011;5021;51.506;11.320;2023-01-04T02:41:02;9.57;;;5.80;;
9960;SDS011;5021;51.506;11.320;2023-01-04T02:43:32;6.73;;;5.93;;
9960;SDS011;5021;51.506;11.320;2023-01-04T02:46:21;7.30;;;5.80;;
9960;SDS011;5021;51.506;11.320;2023-01-04T02:48:50;7.33;;;5.83;;
9960;SDS011;5021;51.506;11.320;2023-01-04T02:51:54;6.00;;;5.40;;
9960;SDS011;5021;51.506;11.320;2023-01-04T02:54:21;6.70;;;4.80;;
9960;SDS011;5021;51.506;11.320;2023-01-04T02:59:45;8.57;;;5.40;;
9960;SDS011;5021;51.506;11.320;2023-01-04T03:02:23;7.67;;;5.27;;
9960;SDS011;5021;51.506;11.320;2023-01-04T03:08:04;8.20;;;5.03;;
9960;SDS011;5021;51.506;11.320;2023-01-04T03:10:39;6.07;;;4.30;;
9960;SDS011;5021;51.506;11.320;2023-01-04T03:13:08;8.40;;;4.77;;
9960;SDS011;5021;51.506;11.320;2023-01-04T03:15:35;8.50;;;4.87;;
9960;SDS011;5021;51.506;11.320;2023-01-04T03:18:12;5.93;;;4.10;;
9960;SDS011;5021;51.506;11.320;2023-01-04T03:20:39;6.63;;;4.57;;
9960;SDS011;5021;51.506;11.320;2023-01-04T03:23:06;5.93;;;4.03;;
9960;SDS011;5021;51.506;11.320;2023-01-04T03:25:52;8.63;;;4.13;;
9960;SDS011;5021;51.506;11.320;2023-01-04T03:28:38;5.83;;;4.30;;
9960;SDS011;5021;51.506;11.320;2023-01-04T03:31:26;9.80;;;4.53;;
9960;SDS011;5021;51.506;11.320;2023-01-04T03:34:12;8.37;;;4.30;;
9960;SDS011;5021;51.506;11.320;2023-01-04T03:36:59;5.53;;;3.43;;
9960;SDS011;5021;51.506;11.320;2023-01-04T03:39:48;5.63;;;4.47;;
9960;SDS011;5021;51.506;11.320;2023-01-04T03:45:22;5.77;;;3.53;;
9960;SDS011;5021;51.506;11.320;2023-01-04T03:48:10;4.50;;;3.30;;
9960;SDS011;5021;51.506;11.320;2023-01-04T03:50:57;7.87;;;3.67;;
9960;SDS011;5021;51.506;11.320;2023-01-04T03:53:25;6.57;;;3.57;;
9960;SDS011;5021;51.506;11.320;2023-01-04T03:55:51;4.60;;;3.63;;
9960;SDS011;5021;51.506;11.320;2023-01-04T03:58:18;4.13;;;3.70;;
9960;SDS011;5021;51.506;11.320;2023-01-04T04:00:45;6.03;;;3.53;;
9960;SDS011;5021;51.506;11.320;2023-01-04T04:03:11;5.60;;;3.80;;
9960;SDS011;5021;51.506;11.320;2023-01-04T04:05:38;7.07;;;3.57;;
9960;SDS011;5021;51.506;11.320;2023-01-04T04:08:23;6.83;;;4.00;;
9960;SDS011;5021;51.506;11.320;2023-01-04T04:11:00;4.70;;;3.90;;
9960;SDS011;5021;51.506;11.320;2023-01-04T04:13:46;4.00;;;3.33;;
9960;SDS011;5021;51.506;11.320;2023-01-04T04:16:13;4.83;;;3.70;;
9960;SDS011;5021;51.506;11.320;2023-01-04T04:18:39;5.53;;;3.80;;
9960;SDS011;5021;51.506;11.320;2023-01-04T04:21:05;4.03;;;3.20;;
9960;SDS011;5021;51.506;11.320;2023-01-04T04:23:31;6.43;;;3.40;;
9960;SDS011;5021;51.506;11.320;2023-01-04T04:25:57;6.27;;;3.83;;
9960;SDS011;5021;51.506;11.320;2023-01-04T04:28:22;4.57;;;3.63;;
9960;SDS011;5021;51.506;11.320;2023-01-04T04:30:48;6.27;;;3.47;;
9960;SDS011;5021;51.506;11.320;2023-01-04T04:33:14;5.63;;;3.70;;
9960;SDS011;5021;51.506;11.320;2023-01-04T04:35:40;4.77;;;3.67;;
9960;SDS011;5021;51.506;11.320;2023-01-04T04:38:06;7.37;;;3.60;;
9960;SDS011;5021;51.506;11.320;2023-01-04T04:40:32;6.50;;;3.87;;
9960;SDS011;5021;51.506;11.320;2023-01-04T04:43:17;4.97;;;3.00;;
9960;SDS011;5021;51.506;11.320;2023-01-04T04:45:42;7.13;;;3.10;;
9960;SDS011;5021;51.506;11.320;2023-01-04T04:48:08;5.73;;;3.40;;
9960;SDS011;5021;51.506;11.320;2023-01-04T04:50:37;5.37;;;3.43;;
9960;SDS011;5021;51.506;11.320;2023-01-04T04:53:03;5.20;;;3.20;;
9960;SDS011;5021;51.506;11.320;2023-01-04T04:55:29;3.67;;;2.73;;
9960;SDS011;5021;51.506;11.320;2023-01-04T04:57:55;5.13;;;3.43;;
9960;SDS011;5021;51.506;11.320;2023-01-04T05:00:21;4.67;;;3.17;;
9960;SDS011;5021;51.506;11.320;2023-01-04T05:02:47;4.60;;;2.90;;
9960;SDS011;5021;51.506;11.320;2023-01-04T05:05:12;5.23;;;2.93;;
9960;SDS011;5021;51.506;11.320;2023-01-04T05:07:38;3.80;;;2.87;;
9960;SDS011;5021;51.506;11.320;2023-01-04T05:10:04;4.60;;;2.97;;
9960;SDS011;5021;51.506;11.320;2023-01-04T05:12:30;3.17;;;2.47;;
9960;SDS011;5021;51.506;11.320;2023-01-04T05:15:15;3.70;;;2.50;;
9960;SDS011;5021;51.506;11.320;2023-01-04T05:17:41;4.40;;;2.53;;
9960;SDS011;5021;51.506;11.320;2023-01-04T05:20:07;4.67;;;2.70;;
9960;SDS011;5021;51.506;11.320;2023-01-04T05:22:33;3.67;;;2.70;;
9960;SDS011;5021;51.506;11.320;2023-01-04T05:24:59;5.20;;;2.70;;
9960;SDS011;5021;51.506;11.320;2023-01-04T05:27:25;4.33;;;2.67;;
9960;SDS011;5021;51.506;11.320;2023-01-04T05:29:51;4.90;;;2.90;;
9960;SDS011;5021;51.506;11.320;2023-01-04T05:32:35;9.67;;;3.30;;
9960;SDS011;5021;51.506;11.320;2023-01-04T05:35:01;4.50;;;2.70;;
9960;SDS011;5021;51.506;11.320;2023-01-04T05:37:27;5.87;;;2.70;;
9960;SDS011;5021;51.506;11.320;2023-01-04T05:39:53;5.63;;;3.00;;
9960;SDS011;5021;51.506;11.320;2023-01-04T05:42:19;3.53;;;2.50;;
9960;SDS011;5021;51.506;11.320;2023-01-04T05:44:52;5.07;;;2.90;;
9960;SDS011;5021;51.506;11.320;2023-01-04T05:47:18;3.80;;;2.80;;
9960;SDS011;5021;51.506;11.320;2023-01-04T05:49:44;6.67;;;2.80;;
9960;SDS011;5021;51.506;11.320;2023-01-04T05:52:10;7.83;;;2.90;;
9960;SDS011;5021;51.506;11.320;2023-01-04T05:54:36;4.80;;;2.70;;
9960;SDS011;5021;51.506;11.320;2023-01-04T05:57:02;4.03;;;2.77;;
9960;SDS011;5021;51.506;11.320;2023-01-04T05:59:28;4.23;;;3.03;;
9960;SDS011;5021;51.506;11.320;2023-01-04T06:01:54;4.07;;;2.60;;
9960;SDS011;5021;51.506;11.320;2023-01-04T06:04:19;3.40;;;2.67;;
9960;SDS011;5021;51.506;11.320;2023-01-04T06:06:45;2.93;;;2.53;;
9960;SDS011;5021;51.506;11.320;2023-01-04T06:09:11;3.57;;;2.57;;
9960;SDS011;5021;51.506;11.320;2023-01-04T06:11:37;4.07;;;2.73;;
9960;SDS011;5021;51.506;11.320;2023-01-04T06:14:03;6.20;;;2.97;;
9960;SDS011;5021;51.506;11.320;2023-01-04T06:16:29;5.53;;;2.40;;
9960;SDS011;5021;51.506;11.320;2023-01-04T06:18:55;4.47;;;2.43;;
9960;SDS011;5021;51.506;11.320;2023-01-04T06:21:21;4.60;;;2.20;;
9960;SDS011;5021;51.506;11.320;2023-01-04T06:23:49;7.57;;;2.87;;
9960;SDS011;5021;51.506;11.320;2023-01-04T06:26:15;5.53;;;2.60;;
9960;SDS011;5021;51.506;11.320;2023-01-04T06:28:41;4.27;;;2.40;;
9960;SDS011;5021;51.506;11.320;2023-01-04T06:31:07;4.40;;;2.60;;
9960;SDS011;5021;51.506;11.320;2023-01-04T06:33:33;4.27;;;2.67;;
9960;SDS011;5021;51.506;11.320;2023-01-04T06:35:59;2.77;;;2.40;;
9960;SDS011;5021;51.506;11.320;2023-01-04T06:38:25;5.30;;;2.60;;
9960;SDS011;5021;51.506;11.320;2023-01-04T06:40:51;5.30;;;2.93;;
9960;SDS011;5021;51.506;11.320;2023-01-04T06:43:17;4.30;;;2.70;;
9960;SDS011;5021;51.506;11.320;2023-01-04T06:45:43;4.73;;;2.83;;
9960;SDS011;5021;51.506;11.320;2023-01-04T06:48:09;2.77;;;2.30;;
9960;SDS011;5021;51.506;11.320;2023-01-04T06:50:35;3.33;;;2.37;;
9960;SDS011;5021;51.506;11.320;2023-01-04T06:53:01;3.67;;;2.43;;
9960;SDS011;5021;51.506;11.320;2023-01-04T06:55:28;5.83;;;2.73;;
9960;SDS011;5021;51.506;11.320;2023-01-04T06:57:54;5.13;;;2.60;;
9960;SDS011;5021;51.506;11.320;2023-01-04T07:00:20;4.70;;;2.33;;
9960;SDS011;5021;51.506;11.320;2023-01-04T07:02:46;4.03;;;2.60;;
9960;SDS011;5021;51.506;11.320;2023-01-04T07:05:12;4.53;;;2.87;;
9960;SDS011;5021;51.506;11.320;2023-01-04T07:07:38;3.50;;;2.50;;
9960;SDS011;5021;51.506;11.320;2023-01-04T07:10:04;4.20;;;2.67;;
9960;SDS011;5021;51.506;11.320;2023-01-04T07:12:30;6.33;;;2.90;;
9960;SDS011;5021;51.506;11.320;2023-01-04T07:14:56;5.53;;;2.77;;
9960;SDS011;5021;51.506;11.320;2023-01-04T07:17:22;3.20;;;2.50;;
9960;SDS011;5021;51.506;11.320;2023-01-04T07:19:48;3.47;;;2.77;;
9960;SDS011;5021;51.506;11.320;2023-01-04T07:22:14;3.50;;;2.20;;
9960;SDS011;5021;51.506;11.320;2023-01-04T07:24:40;3.57;;;2.43;;
9960;SDS011;5021;51.506;11.320;2023-01-04T07:27:07;3.57;;;2.63;;
9960;SDS011;5021;51.506;11.320;2023-01-04T07:29:33;3.93;;;3.00;;
9960;SDS011;5021;51.506;11.320;2023-01-04T07:31:59;5.47;;;2.87;;
9960;SDS011;5021;51.506;11.320;2023-01-04T07:34:26;2.63;;;2.30;;
9960;SDS011;5021;51.506;11.320;2023-01-04T07:36:52;4.23;;;3.13;;
9960;SDS011;5021;51.506;11.320;2023-01-04T07:39:18;4.30;;;2.43;;
9960;SDS011;5021;51.506;11.320;2023-01-04T07:41:45;5.13;;;2.87;;
9960;SDS011;5021;51.506;11.320;2023-01-04T07:44:11;3.80;;;2.73;;
9960;SDS011;5021;51.506;11.320;2023-01-04T07:46:37;3.97;;;2.90;;
9960;SDS011;5021;51.506;11.320;2023-01-04T07:49:04;4.67;;;2.60;;
9960;SDS011;5021;51.506;11.320;2023-01-04T07:51:30;3.90;;;2.90;;
9960;SDS011;5021;51.506;11.320;2023-01-04T07:53:56;4.27;;;2.87;;
9960;SDS011;5021;51.506;11.320;2023-01-04T07:56:22;3.90;;;2.73;;
9960;SDS011;5021;51.506;11.320;2023-01-04T07:58:48;4.30;;;3.20;;
9960;SDS011;5021;51.506;11.320;2023-01-04T08:01:15;6.40;;;3.00;;
9960;SDS011;5021;51.506;11.320;2023-01-04T08:03:42;3.57;;;3.07;;
9960;SDS011;5021;51.506;11.320;2023-01-04T08:06:09;5.83;;;4.43;;
9960;SDS011;5021;51.506;11.320;2023-01-04T08:08:36;5.77;;;3.40;;
9960;SDS011;5021;51.506;11.320;2023-01-04T08:11:02;5.27;;;3.17;;
9960;SDS011;5021;51.506;11.320;2023-01-04T08:13:28;3.70;;;3.40;;
9960;SDS011;5021;51.506;11.320;2023-01-04T08:15:54;5.63;;;4.13;;
9960;SDS011;5021;51.506;11.320;2023-01-04T08:18:20;4.33;;;3.20;;
9960;SDS011;5021;51.506;11.320;2023-01-04T08:20:47;5.17;;;3.83;;
9960;SDS011;5021;51.506;11.320;2023-01-04T08:23:12;3.77;;;3.37;;
9960;SDS011;5021;51.506;11.320;2023-01-04T08:25:38;4.50;;;4.07;;
9960;SDS011;5021;51.506;11.320;2023-01-04T08:28:04;3.67;;;3.17;;
9960;SDS011;5021;51.506;11.320;2023-01-04T08:30:30;5.20;;;3.77;;
9960;SDS011;5021;51.506;11.320;2023-01-04T08:32:56;5.80;;;4.80;;
9960;SDS011;5021;51.506;11.320;2023-01-04T08:35:22;4.83;;;4.10;;
9960;SDS011;5021;51.506;11.320;2023-01-04T08:37:48;4.63;;;3.43;;
9960;SDS011;5021;51.506;11.320;2023-01-04T08:40:14;6.97;;;3.63;;
9960;SDS011;5021;51.506;11.320;2023-01-04T08:42:40;4.67;;;3.63;;
9960;SDS011;5021;51.506;11.320;2023-01-04T08:45:06;3.50;;;3.17;;
9960;SDS011;5021;51.506;11.320;2023-01-04T08:47:32;3.53;;;2.90;;
9960;SDS011;5021;51.506;11.320;2023-01-04T08:49:58;6.50;;;3.30;;
9960;SDS011;5021;51.506;11.320;2023-01-04T08:52:25;3.60;;;3.27;;
9960;SDS011;5021;51.506;11.320;2023-01-04T08:54:50;4.00;;;3.20;;
9960;SDS011;5021;51.506;11.320;2023-01-04T08:57:18;3.27;;;2.97;;
9960;SDS011;5021;51.506;11.320;2023-01-04T08:59:44;3.60;;;2.93;;
9960;SDS011;5021;51.506;11.320;2023-01-04T09:02:24;4.90;;;3.20;;
9960;SDS011;5021;51.506;11.320;2023-01-04T09:04:50;3.23;;;2.63;;
9960;SDS011;5021;51.506;11.320;2023-01-04T09:07:16;3.30;;;2.77;;
9960;SDS011;5021;51.506;11.320;2023-01-04T09:09:43;3.57;;;3.00;;
9960;SDS011;5021;51.506;11.320;2023-01-04T09:12:09;3.20;;;2.90;;
9960;SDS011;5021;51.506;11.320;2023-01-04T09:14:35;3.03;;;2.70;;
9960;SDS011;5021;51.506;11.320;2023-01-04T09:17:02;3.53;;;2.63;;
9960;SDS011;5021;51.506;11.320;2023-01-04T09:19:28;4.00;;;2.60;;
9960;SDS011;5021;51.506;11.320;2023-01-04T09:21:54;4.00;;;2.67;;
9960;SDS011;5021;51.506;11.320;2023-01-04T09:24:20;3.57;;;3.00;;
9960;SDS011;5021;51.506;11.320;2023-01-04T09:26:46;4.23;;;2.50;;
9960;SDS011;5021;51.506;11.320;2023-01-04T09:29:12;7.13;;;3.30;;
9960;SDS011;5021;51.506;11.320;2023-01-04T09:31:38;2.90;;;2.60;;
9960;SDS011;5021;51.506;11.320;2023-01-04T09:34:04;2.90;;;2.60;;
9960;SDS011;5021;51.506;11.320;2023-01-04T09:36:30;3.40;;;3.00;;
9960;SDS011;5021;51.506;11.320;2023-01-04T09:38:57;3.93;;;3.00;;
9960;SDS011;5021;51.506;11.320;2023-01-04T09:41:24;3.63;;;2.77;;
9960;SDS011;5021;51.506;11.320;2023-01-04T09:43:57;4.40;;;2.97;;
9960;SDS011;5021;51.506;11.320;2023-01-04T09:46:33;4.23;;;2.90;;
9960;SDS011;5021;51.506;11.320;2023-01-04T09:51:48;3.93;;;3.33;;
9960;SDS011;5021;51.506;11.320;2023-01-04T09:54:17;4.87;;;2.77;;
9960;SDS011;5021;51.506;11.320;2023-01-04T09:56:54;3.37;;;3.07;;
9960;SDS011;5021;51.506;11.320;2023-01-04T09:59:24;5.23;;;3.50;;
9960;SDS011;5021;51.506;11.320;2023-01-04T10:01:52;5.03;;;3.47;;
9960;SDS011;5021;51.506;11.320;2023-01-04T10:04:39;4.30;;;3.80;;
9960;SDS011;5021;51.506;11.320;2023-01-04T10:07:08;3.80;;;3.43;;
9960;SDS011;5021;51.506;11.320;2023-01-04T10:09:38;3.53;;;3.10;;
9960;SDS011;5021;51.506;11.320;2023-01-04T10:12:07;6.63;;;3.97;;
9960;SDS011;5021;51.506;11.320;2023-01-04T10:14:47;6.37;;;3.67;;
9960;SDS011;5021;51.506;11.320;2023-01-04T10:17:39;4.20;;;3.20;;
9960;SDS011;5021;51.506;11.320;2023-01-04T10:20:29;4.13;;;3.73;;
9960;SDS011;5021;51.506;11.320;2023-01-04T10:23:11;3.93;;;3.50;;
9960;SDS011;5021;51.506;11.320;2023-01-04T10:31:17;3.73;;;3.07;;
9960;SDS011;5021;51.506;11.320;2023-01-04T10:33:47;3.90;;;3.37;;
9960;SDS011;5021;51.506;11.320;2023-01-04T10:36:26;3.60;;;3.30;;
9960;SDS011;5021;51.506;11.320;2023-01-04T10:38:59;4.87;;;3.73;;
9960;SDS011;5021;51.506;11.320;2023-01-04T10:41:27;4.47;;;3.50;;
9960;SDS011;5021;51.506;11.320;2023-01-04T10:43:58;5.20;;;4.30;;
9960;SDS011;5021;51.506;11.320;2023-01-04T10:46:31;4.17;;;3.17;;
9960;SDS011;5021;51.506;11.320;2023-01-04T10:49:03;5.00;;;3.70;;
9960;SDS011;5021;51.506;11.320;2023-01-04T10:51:33;4.77;;;3.63;;
9960;SDS011;5021;51.506;11.320;2023-01-04T10:59:14;5.17;;;3.40;;
9960;SDS011;5021;51.506;11.320;2023-01-04T11:04:38;5.10;;;3.33;;
9960;SDS011;5021;51.506;11.320;2023-01-04T11:07:12;4.47;;;3.67;;
9960;SDS011;5021;51.506;11.320;2023-01-04T11:09:48;3.40;;;3.10;;
9960;SDS011;5021;51.506;11.320;2023-01-04T11:12:16;3.90;;;3.50;;
9960;SDS011;5021;51.506;11.320;2023-01-04T11:14:42;4.10;;;3.47;;
9960;SDS011;5021;51.506;11.320;2023-01-04T11:17:08;5.27;;;3.23;;
9960;SDS011;5021;51.506;11.320;2023-01-04T11:19:35;5.03;;;4.10;;
9960;SDS011;5021;51.506;11.320;2023-01-04T11:24:47;4.63;;;3.70;;
9960;SDS011;5021;51.506;11.320;2023-01-04T11:27:16;4.03;;;3.63;;
9960;SDS011;5021;51.506;11.320;2023-01-04T11:32:14;6.87;;;3.87;;
9960;SDS011;5021;51.506;11.320;2023-01-04T11:34:45;4.70;;;3.90;;
9960;SDS011;5021;51.506;11.320;2023-01-04T11:39:49;3.77;;;3.40;;
9960;SDS011;5021;51.506;11.320;2023-01-04T11:42:18;5.00;;;4.00;;
9960;SDS011;5021;51.506;11.320;2023-01-04T11:44:45;3.90;;;3.60;;
9960;SDS011;5021;51.506;11.320;2023-01-04T11:47:22;7.00;;;3.40;;
9960;SDS011;5021;51.506;11.320;2023-01-04T11:49:49;3.87;;;3.47;;
9960;SDS011;5021;51.506;11.320;2023-01-04T11:55:11;4.10;;;3.70;;
9960;SDS011;5021;51.506;11.320;2023-01-04T11:57:40;4.10;;;3.40;;
9960;SDS011;5021;51.506;11.320;2023-01-04T12:00:13;5.30;;;3.70;;
9960;SDS011;5021;51.506;11.320;2023-01-04T12:02:40;3.73;;;3.43;;
9960;SDS011;5021;51.506;11.320;2023-01-04T12:05:19;4.87;;;3.83;;
9960;SDS011;5021;51.506;11.320;2023-01-04T12:07:45;4.30;;;3.33;;
9960;SDS011;5021;51.506;11.320;2023-01-04T12:10:18;7.43;;;3.73;;
9960;SDS011;5021;51.506;11.320;2023-01-04T12:12:45;4.03;;;3.43;;
9960;SDS011;5021;51.506;11.320;2023-01-04T12:15:15;3.80;;;3.03;;
9960;SDS011;5021;51.506;11.320;2023-01-04T12:17:51;6.57;;;3.50;;
9960;SDS011;5021;51.506;11.320;2023-01-04T12:20:18;4.23;;;3.23;;
9960;SDS011;5021;51.506;11.320;2023-01-04T12:22:45;6.27;;;3.43;;
9960;SDS011;5021;51.506;11.320;2023-01-04T12:25:32;3.17;;;2.87;;
9960;SDS011;5021;51.506;11.320;2023-01-04T12:27:58;3.10;;;2.83;;
9960;SDS011;5021;51.506;11.320;2023-01-04T12:30:32;3.07;;;2.77;;
9960;SDS011;5021;51.506;11.320;2023-01-04T12:32:58;3.00;;;2.67;;
9960;SDS011;5021;51.506;11.320;2023-01-04T12:38:09;3.10;;;2.80;;
9960;SDS011;5021;51.506;11.320;2023-01-04T12:45:39;3.63;;;3.00;;
9960;SDS011;5021;51.506;11.320;2023-01-04T12:51:22;4.00;;;2.73;;
9960;SDS011;5021;51.506;11.320;2023-01-04T12:54:07;3.37;;;2.70;;
9960;SDS011;5021;51.506;11.320;2023-01-04T12:59:30;3.57;;;2.70;;
9960;SDS011;5021;51.506;11.320;2023-01-04T13:02:13;3.80;;;2.83;;
9960;SDS011;5021;51.506;11.320;2023-01-04T13:04:40;2.83;;;2.53;;
9960;SDS011;5021;51.506;11.320;2023-01-04T13:07:12;2.97;;;2.77;;
9960;SDS011;5021;51.506;11.320;2023-01-04T13:09:40;4.17;;;2.70;;
9960;SDS011;5021;51.506;11.320;2023-01-04T13:12:11;3.20;;;2.60;;
9960;SDS011;5021;51.506;11.320;2023-01-04T13:14:42;4.90;;;3.20;;
9960;SDS011;5021;51.506;11.320;2023-01-04T13:17:14;3.33;;;2.60;;
9960;SDS011;5021;51.506;11.320;2023-01-04T13:19:40;2.70;;;2.50;;
9960;SDS011;5021;51.506;11.320;2023-01-04T13:22:09;3.10;;;2.80;;
9960;SDS011;5021;51.506;11.320;2023-01-04T13:24:36;3.60;;;3.00;;
9960;SDS011;5021;51.506;11.320;2023-01-04T13:27:16;2.93;;;2.73;;
9960;SDS011;5021;51.506;11.320;2023-01-04T13:29:42;3.90;;;2.93;;
9960;SDS011;5021;51.506;11.320;2023-01-04T13:32:20;3.30;;;3.00;;
9960;SDS011;5021;51.506;11.320;2023-01-04T13:34:59;4.10;;;2.90;;
9960;SDS011;5021;51.506;11.320;2023-01-04T13:39:59;3.13;;;2.70;;
9960;SDS011;5021;51.506;11.320;2023-01-04T13:42:26;3.17;;;2.87;;
9960;SDS011;5021;51.506;11.320;2023-01-04T13:47:28;4.13;;;3.00;;
9960;SDS011;5021;51.506;11.320;2023-01-04T13:49:54;3.47;;;2.73;;
9960;SDS011;5021;51.506;11.320;2023-01-04T13:52:24;3.00;;;2.70;;
9960;SDS011;5021;51.506;11.320;2023-01-04T13:54:50;5.47;;;3.00;;
9960;SDS011;5021;51.506;11.320;2023-01-04T13:57:16;3.67;;;2.43;;
9960;SDS011;5021;51.506;11.320;2023-01-04T13:59:47;3.17;;;2.80;;
9960;SDS011;5021;51.506;11.320;2023-01-04T14:02:17;2.97;;;2.30;;
9960;SDS011;5021;51.506;11.320;2023-01-04T14:04:44;3.53;;;2.60;;
9960;SDS011;5021;51.506;11.320;2023-01-04T14:07:10;2.80;;;2.30;;
9960;SDS011;5021;51.506;11.320;2023-01-04T14:09:47;2.60;;;2.40;;
9960;SDS011;5021;51.506;11.320;2023-01-04T14:12:17;3.53;;;2.43;;
9960;SDS011;5021;51.506;11.320;2023-01-04T14:19:41;2.93;;;2.40;;
9960;SDS011;5021;51.506;11.320;2023-01-04T14:24:45;3.83;;;2.40;;
9960;SDS011;5021;51.506;11.320;2023-01-04T14:29:56;2.70;;;2.50;;
9960;SDS011;5021;51.506;11.320;2023-01-04T14:32:22;2.53;;;2.33;;
9960;SDS011;5021;51.506;11.320;2023-01-04T14:34:48;2.30;;;2.10;;
9960;SDS011;5021;51.506;11.320;2023-01-04T14:37:14;2.57;;;2.37;;
9960;SDS011;5021;51.506;11.320;2023-01-04T14:39:40;3.57;;;2.87;;
9960;SDS011;5021;51.506;11.320;2023-01-04T14:42:23;2.90;;;2.60;;
9960;SDS011;5021;51.506;11.320;2023-01-04T14:44:49;3.47;;;2.87;;
9960;SDS011;5021;51.506;11.320;2023-01-04T14:47:15;3.37;;;2.43;;
9960;SDS011;5021;51.506;11.320;2023-01-04T14:49:41;4.00;;;2.67;;
9960;SDS011;5021;51.506;11.320;2023-01-04T14:52:08;2.70;;;2.50;;
9960;SDS011;5021;51.506;11.320;2023-01-04T14:54:34;3.93;;;2.73;;
9960;SDS011;5021;51.506;11.320;2023-01-04T14:57:03;3.40;;;2.10;;
9960;SDS011;5021;51.506;11.320;2023-01-04T14:59:29;1.90;;;1.80;;
9960;SDS011;5021;51.506;11.320;2023-01-04T15:01:55;2.47;;;2.10;;
9960;SDS011;5021;51.506;11.320;2023-01-04T15:04:21;3.23;;;2.30;;
9960;SDS011;5021;51.506;11.320;2023-01-04T15:06:48;2.10;;;1.90;;
9960;SDS011;5021;51.506;11.320;2023-01-04T15:09:14;1.77;;;1.67;;
9960;SDS011;5021;51.506;11.320;2023-01-04T15:11:40;2.00;;;1.80;;
9960;SDS011;5021;51.506;11.320;2023-01-04T15:14:06;2.77;;;2.10;;
9960;SDS011;5021;51.506;11.320;2023-01-04T15:16:32;3.97;;;1.97;;
9960;SDS011;5021;51.506;11.320;2023-01-04T15:18:58;2.07;;;1.87;;
9960;SDS011;5021;51.506;11.320;2023-01-04T15:21:24;2.33;;;2.00;;
9960;SDS011;5021;51.506;11.320;2023-01-04T15:23:50;2.10;;;1.80;;
9960;SDS011;5021;51.506;11.320;2023-01-04T15:26:16;1.97;;;1.77;;
9960;SDS011;5021;51.506;11.320;2023-01-04T15:28:42;3.20;;;1.90;;
9960;SDS011;5021;51.506;11.320;2023-01-04T15:31:09;1.97;;;1.87;;
9960;SDS011;5021;51.506;11.320;2023-01-04T15:33:35;2.70;;;1.90;;
9960;SDS011;5021;51.506;11.320;2023-01-04T15:36:02;1.97;;;1.87;;
9960;SDS011;5021;51.506;11.320;2023-01-04T15:38:29;2.37;;;1.90;;
9960;SDS011;5021;51.506;11.320;2023-01-04T15:40:58;1.60;;;1.50;;
9960;SDS011;5021;51.506;11.320;2023-01-04T15:43:24;2.03;;;1.50;;
9960;SDS011;5021;51.506;11.320;2023-01-04T15:45:51;1.70;;;1.60;;
9960;SDS011;5021;51.506;11.320;2023-01-04T15:48:17;1.80;;;1.70;;
9960;SDS011;5021;51.506;11.320;2023-01-04T15:50:43;1.50;;;1.40;;
9960;SDS011;5021;51.506;11.320;2023-01-04T15:53:09;1.90;;;1.57;;
9960;SDS011;5021;51.506;11.320;2023-01-04T15:55:35;1.37;;;1.27;;
9960;SDS011;5021;51.506;11.320;2023-01-04T15:58:01;1.73;;;1.63;;
9960;SDS011;5021;51.506;11.320;2023-01-04T16:00:27;1.67;;;1.50;;
9960;SDS011;5021;51.506;11.320;2023-01-04T16:02:53;1.60;;;1.50;;
9960;SDS011;5021;51.506;11.320;2023-01-04T16:05:19;1.70;;;1.60;;
9960;SDS011;5021;51.506;11.320;2023-01-04T16:07:45;1.80;;;1.70;;
9960;SDS011;5021;51.506;11.320;2023-01-04T16:10:12;2.10;;;1.47;;
9960;SDS011;5021;51.506;11.320;2023-01-04T16:12:37;1.70;;;1.60;;
9960;SDS011;5021;51.506;11.320;2023-01-04T16:17:35;1.67;;;1.57;;
9960;SDS011;5021;51.506;11.320;2023-01-04T16:20:01;1.53;;;1.33;;
9960;SDS011;5021;51.506;11.320;2023-01-04T16:22:27;1.57;;;1.47;;
9960;SDS011;5021;51.506;11.320;2023-01-04T16:24:53;2.03;;;1.50;;
9960;SDS011;5021;51.506;11.320;2023-01-04T16:27:19;2.27;;;1.30;;
9960;SDS011;5021;51.506;11.320;2023-01-04T16:29:45;1.53;;;1.40;;
9960;SDS011;5021;51.506;11.320;2023-01-04T16:32:11;1.50;;;1.40;;